Time;durP1;ratioP1;P1;durP2;ratioP2;P2;SDS_P1;SDS_P2;PMS_P1;PMS_P2;Temp;Humidity;BMP_temperature;BMP_pressure;BME280_temperature;BME280_humidity;BME280_pressure;Samples;Min_cycle;Max_cycle;Signal;HPM_P1;HPM_P2
2021/01/01 00:00:16;;;;;;;110.82;43.50;;;;;;;;;;5035250;28;20696;-78
2021/01/01 00:03:04;;;;;;;106.75;45.20;;;;;;;;;;5044926;28;20045;-79
2021/01/01 00:05:31;;;;;;;97.60;40.70;;;;;;;;;;5035355;28;20057;-78
2021/01/01 00:08:02;;;;;;;97.25;38.17;;;;;;;;;;5050974;28;20056;-78
2021/01/01 00:10:31;;;;;;;91.22;42.50;;;;;;;;;;5052697;28;20045;-77
2021/01/01 00:12:59;;;;;;;97.20;44.10;;;;;;;;;;5032760;28;20053;-77
2021/01/01 00:15:26;;;;;;;103.47;44.65;;;;;;;;;;5033771;28;20423;-77
2021/01/01 00:17:54;;;;;;;106.60;43.28;;;;;;;;;;5050586;28;20091;-77
2021/01/01 00:20:22;;;;;;;97.88;46.58;;;;;;;;;;5050990;28;20419;-77
2021/01/01 00:22:49;;;;;;;102.40;44.47;;;;;;;;;;5033127;28;20057;-77
2021/01/01 00:25:17;;;;;;;97.43;45.85;;;;;;;;;;5050653;28;20065;-78
2021/01/01 00:27:44;;;;;;;93.85;41.25;;;;;;;;;;5034555;28;20118;-78
2021/01/01 00:30:13;;;;;;;89.10;40.10;;;;;;;;;;5054867;28;20057;-77
2021/01/01 00:32:42;;;;;;;92.38;38.33;;;;;;;;;;5050475;28;20143;-79
2021/01/01 00:35:11;;;;;;;92.80;38.72;;;;;;;;;;5050943;28;20044;-78
2021/01/01 00:37:40;;;;;;;99.38;41.30;;;;;;;;;;5017183;28;20061;-78
2021/01/01 00:40:08;;;;;;;97.57;45.75;;;;;;;;;;5033586;28;20084;-78
2021/01/01 00:42:38;;;;;;;101.18;47.85;;;;;;;;;;5055614;28;20068;-78
2021/01/01 00:45:07;;;;;;;103.10;39.80;;;;;;;;;;5054126;28;20049;-78
2021/01/01 00:47:35;;;;;;;95.30;41.72;;;;;;;;;;5050483;28;20048;-78
2021/01/01 00:50:05;;;;;;;101.00;39.60;;;;;;;;;;5057546;28;20498;-78
2021/01/01 00:52:35;;;;;;;78.32;35.75;;;;;;;;;;5052110;28;20041;-78
2021/01/01 00:55:05;;;;;;;93.68;38.30;;;;;;;;;;5018480;28;20126;-78
2021/01/01 00:57:33;;;;;;;78.63;36.80;;;;;;;;;;5034634;28;20045;-78
2021/01/01 01:00:03;;;;;;;84.95;37.25;;;;;;;;;;5050450;28;20092;-78
2021/01/01 01:02:30;;;;;;;81.95;33.85;;;;;;;;;;5018693;28;20792;-77
2021/01/01 01:04:58;;;;;;;95.75;38.38;;;;;;;;;;5050066;28;20061;-77
2021/01/01 01:07:26;;;;;;;75.82;37.80;;;;;;;;;;5050584;28;20088;-77
2021/01/01 01:09:54;;;;;;;89.53;42.25;;;;;;;;;;5049162;28;20095;-76
2021/01/01 01:12:22;;;;;;;76.22;34.72;;;;;;;;;;5037990;28;20083;-78
2021/01/01 01:14:49;;;;;;;87.55;36.78;;;;;;;;;;5051940;28;20064;-78
2021/01/01 01:17:17;;;;;;;107.32;41.30;;;;;;;;;;5052578;28;20480;-79
2021/01/01 01:19:45;;;;;;;85.80;39.65;;;;;;;;;;5034586;28;20499;-78
2021/01/01 01:22:12;;;;;;;101.20;39.05;;;;;;;;;;5050736;28;20073;-79
2021/01/01 01:24:40;;;;;;;84.57;40.13;;;;;;;;;;5034587;28;20080;-79
2021/01/01 01:27:08;;;;;;;87.68;37.88;;;;;;;;;;5051583;28;20065;-79
2021/01/01 01:29:36;;;;;;;88.53;31.45;;;;;;;;;;5050466;28;20143;-79
2021/01/01 01:32:04;;;;;;;77.03;34.60;;;;;;;;;;5049668;28;20110;-76
2021/01/01 01:34:32;;;;;;;81.72;35.00;;;;;;;;;;5053578;28;20041;-76
2021/01/01 01:36:59;;;;;;;95.00;41.80;;;;;;;;;;5048118;28;20166;-76
2021/01/01 01:39:27;;;;;;;80.63;40.05;;;;;;;;;;5051735;28;20446;-77
2021/01/01 01:41:54;;;;;;;93.13;36.38;;;;;;;;;;5049839;28;20484;-76
2021/01/01 01:44:22;;;;;;;86.45;37.00;;;;;;;;;;5032469;28;20072;-77
2021/01/01 01:46:50;;;;;;;97.35;39.03;;;;;;;;;;5048400;28;20064;-77
2021/01/01 01:49:19;;;;;;;103.97;40.63;;;;;;;;;;5032181;28;20519;-76
2021/01/01 01:51:49;;;;;;;96.70;41.95;;;;;;;;;;5032794;28;20423;-77
2021/01/01 01:54:19;;;;;;;100.63;44.10;;;;;;;;;;5019982;28;20408;-77
2021/01/01 01:56:47;;;;;;;96.47;38.50;;;;;;;;;;5036109;28;20172;-77
2021/01/01 01:59:18;;;;;;;103.50;43.58;;;;;;;;;;5019839;28;20059;-78
2021/01/01 02:01:45;;;;;;;93.15;38.90;;;;;;;;;;5057274;28;20052;-78
2021/01/01 02:04:13;;;;;;;92.38;42.25;;;;;;;;;;5036617;28;20057;-78
2021/01/01 02:06:43;;;;;;;92.78;37.97;;;;;;;;;;5036204;28;20061;-77
2021/01/01 02:09:14;;;;;;;100.18;38.75;;;;;;;;;;5037482;28;20064;-78
2021/01/01 02:11:46;;;;;;;86.85;36.15;;;;;;;;;;5038549;28;20071;-78
2021/01/01 02:14:14;;;;;;;84.32;37.13;;;;;;;;;;5038635;28;20114;-78
2021/01/01 02:16:43;;;;;;;86.15;35.95;;;;;;;;;;5054505;28;20179;-79
2021/01/01 02:19:14;;;;;;;83.60;36.30;;;;;;;;;;5054318;28;20061;-78
2021/01/01 02:21:42;;;;;;;83.88;35.58;;;;;;;;;;5020250;28;20084;-78
2021/01/01 02:24:11;;;;;;;93.68;42.70;;;;;;;;;;5021235;28;20048;-79
2021/01/01 02:26:39;;;;;;;80.53;36.78;;;;;;;;;;5053865;28;20064;-78
2021/01/01 02:29:07;;;;;;;87.55;39.58;;;;;;;;;;5053619;28;20040;-78
2021/01/01 02:31:34;;;;;;;85.60;39.03;;;;;;;;;;5020966;28;20107;-79
2021/01/01 02:34:03;;;;;;;94.65;38.17;;;;;;;;;;5060470;28;20041;-77
2021/01/01 02:36:30;;;;;;;90.22;40.85;;;;;;;;;;5053823;28;20507;-77
2021/01/01 02:39:12;;;;;;;94.20;36.78;;;;;;;;;;5044708;28;20044;-78
2021/01/01 02:41:39;;;;;;;88.50;37.42;;;;;;;;;;5053400;28;20092;-78
2021/01/01 02:44:07;;;;;;;87.47;35.13;;;;;;;;;;5052451;28;20108;-78
2021/01/01 02:46:34;;;;;;;89.82;40.10;;;;;;;;;;5053738;28;20436;-79
2021/01/01 02:49:02;;;;;;;73.70;27.92;;;;;;;;;;5054191;28;20076;-78
2021/01/01 02:51:29;;;;;;;82.90;28.88;;;;;;;;;;5053348;28;20491;-78
2021/01/01 02:53:57;;;;;;;82.65;29.10;;;;;;;;;;5059461;28;20068;-77
2021/01/01 02:56:25;;;;;;;60.35;27.10;;;;;;;;;;5056703;28;20041;-78
2021/01/01 02:58:53;;;;;;;77.38;31.80;;;;;;;;;;5053153;28;20061;-77
2021/01/01 03:01:21;;;;;;;79.20;30.20;;;;;;;;;;5055416;28;20045;-77
2021/01/01 03:03:48;;;;;;;90.60;35.17;;;;;;;;;;5052330;28;20450;-77
2021/01/01 03:06:16;;;;;;;74.20;30.58;;;;;;;;;;5057368;28;20124;-77
2021/01/01 03:08:44;;;;;;;77.35;32.60;;;;;;;;;;5052697;28;20507;-76
2021/01/01 03:11:11;;;;;;;81.20;36.60;;;;;;;;;;5051343;28;20056;-78
2021/01/01 03:13:39;;;;;;;86.15;36.33;;;;;;;;;;5053049;28;20045;-77
2021/01/01 03:16:07;;;;;;;75.25;35.08;;;;;;;;;;5034415;28;20198;-77
2021/01/01 03:18:35;;;;;;;91.20;34.28;;;;;;;;;;5050712;28;20064;-77
2021/01/01 03:21:03;;;;;;;92.75;32.65;;;;;;;;;;5051742;28;20146;-77
2021/01/01 03:23:32;;;;;;;85.38;36.78;;;;;;;;;;5002170;28;20056;-77
2021/01/01 03:25:59;;;;;;;75.53;36.88;;;;;;;;;;5050306;28;20503;-77
2021/01/01 03:28:27;;;;;;;84.03;36.42;;;;;;;;;;5035433;28;20049;-77
2021/01/01 03:30:55;;;;;;;89.22;34.85;;;;;;;;;;5051262;28;20053;-77
2021/01/01 03:33:22;;;;;;;86.28;36.55;;;;;;;;;;5050153;28;20063;-77
2021/01/01 03:35:50;;;;;;;83.82;38.40;;;;;;;;;;5033586;28;20059;-77
2021/01/01 03:38:18;;;;;;;82.72;36.63;;;;;;;;;;5033935;28;20063;-77
2021/01/01 03:40:49;;;;;;;89.63;38.00;;;;;;;;;;5016964;28;20060;-75
2021/01/01 03:43:17;;;;;;;79.70;35.85;;;;;;;;;;5067062;28;20052;-76
2021/01/01 03:45:45;;;;;;;85.20;37.75;;;;;;;;;;5049771;28;20138;-75
2021/01/01 03:48:12;;;;;;;82.97;36.25;;;;;;;;;;5050004;28;20098;-75
2021/01/01 03:50:40;;;;;;;92.22;40.58;;;;;;;;;;5040042;28;20045;-76
2021/01/01 03:53:08;;;;;;;101.50;35.22;;;;;;;;;;5049826;28;20052;-75
2021/01/01 03:55:35;;;;;;;76.65;32.83;;;;;;;;;;5033734;28;20098;-76
2021/01/01 03:58:03;;;;;;;77.00;32.95;;;;;;;;;;5046522;28;20045;-76
2021/01/01 04:00:31;;;;;;;72.57;32.38;;;;;;;;;;5033298;28;20068;-74
2021/01/01 04:02:59;;;;;;;74.47;31.75;;;;;;;;;;5065587;28;20064;-74
2021/01/01 04:05:26;;;;;;;73.35;28.85;;;;;;;;;;5017206;28;20716;-74
2021/01/01 04:07:54;;;;;;;88.65;33.22;;;;;;;;;;5017453;28;20056;-74
2021/01/01 04:10:21;;;;;;;85.10;30.20;;;;;;;;;;5033035;28;20057;-75
2021/01/01 04:12:49;;;;;;;76.03;29.92;;;;;;;;;;5071953;28;20041;-76
2021/01/01 04:15:17;;;;;;;98.32;33.17;;;;;;;;;;5032223;28;20147;-76
2021/01/01 04:17:44;;;;;;;66.13;26.98;;;;;;;;;;5051032;28;20065;-75
2021/01/01 04:20:13;;;;;;;64.45;27.92;;;;;;;;;;5051401;28;20061;-76
2021/01/01 04:22:41;;;;;;;80.30;29.38;;;;;;;;;;5049437;28;20543;-76
2021/01/01 04:25:09;;;;;;;73.47;30.30;;;;;;;;;;5048939;28;20408;-75
2021/01/01 04:27:37;;;;;;;63.53;28.00;;;;;;;;;;5032004;28;20068;-75
2021/01/01 04:30:06;;;;;;;75.35;32.40;;;;;;;;;;5065312;28;20071;-76
2021/01/01 04:32:34;;;;;;;66.50;29.85;;;;;;;;;;5052358;28;20045;-75
2021/01/01 04:35:02;;;;;;;76.72;30.83;;;;;;;;;;5050569;28;20084;-76
2021/01/01 04:37:30;;;;;;;64.97;29.27;;;;;;;;;;5049280;28;20169;-76
2021/01/01 04:39:57;;;;;;;64.70;29.45;;;;;;;;;;5039192;28;20665;-75
2021/01/01 04:42:25;;;;;;;68.88;30.17;;;;;;;;;;5048974;28;20136;-76
2021/01/01 04:44:53;;;;;;;62.38;27.33;;;;;;;;;;5016468;28;20060;-76
2021/01/01 04:47:23;;;;;;;70.07;29.92;;;;;;;;;;5016199;28;20071;-76
2021/01/01 04:49:51;;;;;;;64.43;27.67;;;;;;;;;;5032837;28;20041;-76
2021/01/01 04:52:18;;;;;;;65.07;29.42;;;;;;;;;;5050274;28;20069;-76
2021/01/01 04:54:49;;;;;;;70.20;29.77;;;;;;;;;;5049869;28;20037;-76
2021/01/01 04:57:16;;;;;;;71.40;31.85;;;;;;;;;;5032751;28;20040;-76
2021/01/01 04:59:44;;;;;;;72.38;31.40;;;;;;;;;;5033066;28;20049;-76
2021/01/01 05:02:11;;;;;;;63.40;29.15;;;;;;;;;;5048580;28;20148;-76
2021/01/01 05:04:39;;;;;;;64.97;25.80;;;;;;;;;;5016326;28;20102;-76
2021/01/01 05:07:07;;;;;;;58.92;25.70;;;;;;;;;;5033104;28;20060;-77
2021/01/01 05:09:34;;;;;;;74.30;29.85;;;;;;;;;;5053180;28;20455;-76
2021/01/01 05:12:11;;;;;;;66.60;31.85;;;;;;;;;;5032742;28;20518;-77
2021/01/01 05:14:39;;;;;;;65.22;29.98;;;;;;;;;;5016423;28;20067;-77
2021/01/01 05:17:10;;;;;;;72.38;32.13;;;;;;;;;;5048718;28;20060;-76
2021/01/01 05:19:44;;;;;;;65.38;29.38;;;;;;;;;;5031970;28;20133;-76
2021/01/01 05:22:13;;;;;;;66.38;29.98;;;;;;;;;;5052459;28;20094;-76
2021/01/01 05:24:46;;;;;;;79.25;31.65;;;;;;;;;;5049872;28;20048;-76
2021/01/01 05:27:18;;;;;;;55.97;28.40;;;;;;;;;;5049615;28;20049;-76
2021/01/01 05:29:54;;;;;;;66.72;31.77;;;;;;;;;;5047780;28;20144;-76
2021/01/01 05:32:28;;;;;;;58.38;28.55;;;;;;;;;;5015515;28;20091;-76
2021/01/01 05:34:59;;;;;;;65.63;25.95;;;;;;;;;;5032510;28;20057;-76
2021/01/01 05:37:35;;;;;;;45.60;22.00;;;;;;;;;;5048081;28;20416;-77
2021/01/01 05:40:11;;;;;;;60.22;24.63;;;;;;;;;;5032365;28;20565;-77
2021/01/01 05:42:39;;;;;;;44.42;22.30;;;;;;;;;;5048851;28;20053;-77
2021/01/01 05:45:15;;;;;;;53.00;25.90;;;;;;;;;;5031537;28;20057;-76
2021/01/01 05:48:03;;;;;;;51.28;24.30;;;;;;;;;;5034934;28;20041;-77
2021/01/01 05:50:32;;;;;;;59.53;19.90;;;;;;;;;;5048919;28;20067;-76
2021/01/01 05:53:17;;;;;;;50.85;23.58;;;;;;;;;;5031641;28;20056;-76
2021/01/01 05:55:47;;;;;;;53.60;23.52;;;;;;;;;;5038820;28;20116;-74
2021/01/01 05:58:33;;;;;;;53.60;25.55;;;;;;;;;;5032999;28;20045;-75
2021/01/01 06:01:03;;;;;;;53.45;23.83;;;;;;;;;;5031550;28;20136;-75
2021/01/01 06:03:33;;;;;;;50.80;23.77;;;;;;;;;;5052540;28;20123;-76
2021/01/01 06:06:04;;;;;;;55.42;23.92;;;;;;;;;;5031597;28;20818;-76
2021/01/01 06:08:34;;;;;;;50.47;19.42;;;;;;;;;;5054434;28;20087;-76
2021/01/01 06:11:06;;;;;;;39.63;18.58;;;;;;;;;;5032497;28;20067;-75
2021/01/01 06:13:36;;;;;;;66.10;22.73;;;;;;;;;;5031054;28;20080;-75
2021/01/01 06:16:09;;;;;;;52.92;19.20;;;;;;;;;;5047495;28;20060;-75
2021/01/01 06:18:42;;;;;;;63.75;23.77;;;;;;;;;;5054683;28;20037;-75
2021/01/01 06:21:09;;;;;;;42.22;22.35;;;;;;;;;;5032832;28;20564;-75
2021/01/01 06:23:40;;;;;;;37.30;14.68;;;;;;;;;;5054437;28;20909;-75
2021/01/01 06:26:13;;;;;;;40.58;18.70;;;;;;;;;;5036583;28;20045;-75
2021/01/01 06:28:44;;;;;;;48.83;23.75;;;;;;;;;;5063528;28;20065;-75
2021/01/01 06:31:12;;;;;;;;;;;;;;;;;;5050233;28;20060;-75
2021/01/01 06:33:44;;;;;;;50.35;24.27;;;;;;;;;;5054544;28;20027;-75
2021/01/01 06:36:37;;;;;;;75.78;29.05;;;;;;;;;;5046997;28;20060;-75
2021/01/01 06:39:05;;;;;;;52.50;25.95;;;;;;;;;;5049116;28;20061;-75
2021/01/01 06:41:44;;;;;;;47.03;24.73;;;;;;;;;;5052350;28;20072;-75
2021/01/01 06:44:42;;;;;;;42.75;23.52;;;;;;;;;;5041131;28;20053;-75
2021/01/01 06:47:30;;;;;;;51.95;24.08;;;;;;;;;;5057870;28;20052;-75
2021/01/01 06:49:57;;;;;;;41.85;21.60;;;;;;;;;;5026648;28;20471;-75
2021/01/01 06:52:25;;;;;;;51.13;22.80;;;;;;;;;;5047297;28;20044;-75
2021/01/01 06:55:11;;;;;;;46.55;19.95;;;;;;;;;;5031175;28;20095;-75
2021/01/01 06:57:49;;;;;;;49.10;21.95;;;;;;;;;;5053862;28;20128;-75
2021/01/01 07:00:49;;;;;;;47.13;22.90;;;;;;;;;;5030817;28;20069;-75
2021/01/01 07:03:30;;;;;;;50.30;25.65;;;;;;;;;;5032703;28;20080;-75
2021/01/01 07:06:18;;;;;;;35.47;16.13;;;;;;;;;;5030805;28;20041;-75
2021/01/01 07:08:46;;;;;;;60.45;21.35;;;;;;;;;;5050029;28;20111;-75
2021/01/01 07:11:23;;;;;;;84.25;29.80;;;;;;;;;;5032103;28;20499;-76
2021/01/01 07:13:53;;;;;;;65.07;23.05;;;;;;;;;;5054046;28;20132;-76
2021/01/01 07:16:23;;;;;;;49.92;24.42;;;;;;;;;;5047381;28;20081;-76
2021/01/01 07:18:52;;;;;;;50.38;24.63;;;;;;;;;;5032184;28;20128;-76
2021/01/01 07:21:21;;;;;;;42.67;23.52;;;;;;;;;;5037531;28;20056;-76
2021/01/01 07:23:49;;;;;;;55.38;23.95;;;;;;;;;;5030447;28;20156;-76
2021/01/01 07:26:17;;;;;;;52.70;26.33;;;;;;;;;;5047092;28;20095;-75
2021/01/01 07:28:48;;;;;;;56.83;24.00;;;;;;;;;;5030618;28;20132;-75
2021/01/01 07:31:18;;;;;;;59.83;27.20;;;;;;;;;;5014486;28;20786;-76
2021/01/01 07:33:47;;;;;;;59.75;27.73;;;;;;;;;;5030535;28;20072;-78
2021/01/01 07:36:15;;;;;;;66.38;29.42;;;;;;;;;;5030817;28;20393;-76
2021/01/01 07:38:47;;;;;;;64.40;34.08;;;;;;;;;;5030299;28;20061;-76
2021/01/01 07:41:23;;;;;;;60.33;31.15;;;;;;;;;;5020608;28;20045;-76
2021/01/01 07:43:51;;;;;;;60.85;25.88;;;;;;;;;;5033472;28;20045;-75
2021/01/01 07:46:18;;;;;;;65.97;32.03;;;;;;;;;;5048710;28;20132;-75
2021/01/01 07:48:53;;;;;;;60.58;30.15;;;;;;;;;;5037263;28;20052;-76
2021/01/01 07:51:22;;;;;;;52.08;26.08;;;;;;;;;;5013405;28;20753;-75
2021/01/01 07:53:49;;;;;;;56.08;29.98;;;;;;;;;;5046204;28;20156;-75
2021/01/01 07:56:20;;;;;;;54.10;27.52;;;;;;;;;;5048007;28;20758;-75
2021/01/01 07:58:49;;;;;;;56.20;26.25;;;;;;;;;;5032294;28;20049;-76
2021/01/01 08:01:18;;;;;;;52.40;25.08;;;;;;;;;;5031497;28;20049;-75
2021/01/01 08:03:52;;;;;;;53.92;26.98;;;;;;;;;;5036032;28;20045;-75
2021/01/01 08:06:20;;;;;;;72.50;32.87;;;;;;;;;;5036465;28;20080;-75
2021/01/01 08:08:49;;;;;;;65.13;32.58;;;;;;;;;;5019806;28;20065;-76
2021/01/01 08:11:18;;;;;;;56.45;26.25;;;;;;;;;;5037522;28;20120;-76
2021/01/01 08:13:47;;;;;;;59.95;26.13;;;;;;;;;;5031138;28;20052;-75
2021/01/01 08:16:17;;;;;;;49.10;24.83;;;;;;;;;;5035279;28;20132;-75
2021/01/01 08:18:46;;;;;;;51.97;25.42;;;;;;;;;;5018418;28;20183;-76
2021/01/01 08:21:14;;;;;;;51.55;23.67;;;;;;;;;;5030734;28;20057;-77
2021/01/01 08:24:09;;;;;;;61.38;26.98;;;;;;;;;;5038298;28;20046;-79
2021/01/01 08:26:38;;;;;;;47.67;23.55;;;;;;;;;;5030060;28;20057;-76
2021/01/01 08:29:12;;;;;;;64.25;30.80;;;;;;;;;;5030851;28;20057;-76
2021/01/01 08:31:40;;;;;;;52.80;25.92;;;;;;;;;;5030601;28;20057;-76
2021/01/01 08:34:07;;;;;;;51.03;26.63;;;;;;;;;;5031117;28;20338;-76
2021/01/01 08:36:35;;;;;;;53.05;23.50;;;;;;;;;;5033550;28;20042;-76
2021/01/01 08:39:13;;;;;;;47.08;23.65;;;;;;;;;;5029804;28;20065;-76
2021/01/01 08:41:48;;;;;;;44.47;24.00;;;;;;;;;;5035746;28;20049;-76
2021/01/01 08:44:16;;;;;;;51.50;24.38;;;;;;;;;;5052368;28;20561;-75
2021/01/01 08:46:44;;;;;;;58.55;29.08;;;;;;;;;;5012924;28;20061;-76
2021/01/01 08:49:20;;;;;;;55.63;27.92;;;;;;;;;;5045702;28;20045;-76
2021/01/01 08:51:49;;;;;;;47.17;25.67;;;;;;;;;;5035807;28;20054;-76
2021/01/01 08:54:37;;;;;;;53.33;27.88;;;;;;;;;;5029197;28;20069;-75
2021/01/01 08:57:05;;;;;;;54.38;28.67;;;;;;;;;;5030843;28;20057;-75
2021/01/01 08:59:33;;;;;;;51.80;25.30;;;;;;;;;;5045376;28;20095;-75
2021/01/01 09:02:00;;;;;;;54.03;27.95;;;;;;;;;;5034435;28;20042;-74
2021/01/01 09:04:30;;;;;;;51.85;27.00;;;;;;;;;;5043597;28;20695;-74
2021/01/01 09:07:00;;;;;;;56.53;29.17;;;;;;;;;;5049957;28;20107;-75
2021/01/01 09:09:31;;;;;;;57.22;29.13;;;;;;;;;;5047254;28;20049;-75
2021/01/01 09:12:13;;;;;;;55.55;28.15;;;;;;;;;;5050134;28;20041;-75
2021/01/01 09:14:48;;;;;;;56.05;26.17;;;;;;;;;;5043250;28;20914;-75
2021/01/01 09:17:24;;;;;;;59.38;27.10;;;;;;;;;;5033849;28;20045;-76
2021/01/01 09:20:06;;;;;;;59.75;29.92;;;;;;;;;;4999185;28;20046;-76
2021/01/01 09:22:36;;;;;;;51.95;25.98;;;;;;;;;;5022175;28;20487;-77
2021/01/01 09:25:25;;;;;;;45.60;19.90;;;;;;;;;;5031171;28;20033;-76
2021/01/01 09:27:54;;;;;;;51.17;26.42;;;;;;;;;;5038829;28;20053;-75
2021/01/01 09:30:25;;;;;;;49.53;22.98;;;;;;;;;;5055717;28;20818;-76
2021/01/01 09:32:58;;;;;;;53.13;25.00;;;;;;;;;;5058164;28;20064;-77
2021/01/01 09:35:29;;;;;;;60.40;31.27;;;;;;;;;;5041696;28;20042;-77
2021/01/01 09:38:02;;;;;;;66.38;33.75;;;;;;;;;;5021805;28;20064;-77
2021/01/01 09:40:34;;;;;;;66.85;31.77;;;;;;;;;;5031700;28;20386;-77
2021/01/01 09:43:06;;;;;;;68.47;34.38;;;;;;;;;;5038517;28;20458;-78
2021/01/01 09:45:35;;;;;;;74.28;36.60;;;;;;;;;;5033175;28;20393;-78
2021/01/01 09:48:04;;;;;;;83.57;40.00;;;;;;;;;;5038346;28;20057;-77
2021/01/01 09:50:32;;;;;;;80.38;37.30;;;;;;;;;;5035340;28;20083;-77
2021/01/01 09:53:01;;;;;;;78.15;35.42;;;;;;;;;;5058443;28;20041;-77
2021/01/01 09:55:29;;;;;;;77.80;41.97;;;;;;;;;;5052906;28;20041;-78
2021/01/01 09:57:57;;;;;;;78.32;38.63;;;;;;;;;;5053715;28;20084;-73
2021/01/01 10:00:25;;;;;;;67.72;32.90;;;;;;;;;;5028638;28;20405;-74
2021/01/01 10:02:53;;;;;;;72.35;33.20;;;;;;;;;;5028799;28;20068;-73
2021/01/01 10:05:20;;;;;;;73.35;34.92;;;;;;;;;;5034513;28;20063;-72
2021/01/01 10:07:48;;;;;;;83.55;38.00;;;;;;;;;;5028966;28;20058;-72
2021/01/01 10:10:16;;;;;;;77.53;39.33;;;;;;;;;;5011360;28;20471;-73
2021/01/01 10:12:43;;;;;;;83.13;38.75;;;;;;;;;;5044470;28;20041;-73
2021/01/01 10:15:11;;;;;;;91.18;41.97;;;;;;;;;;5031087;28;20061;-73
2021/01/01 10:17:39;;;;;;;92.78;42.78;;;;;;;;;;5048202;28;20061;-73
2021/01/01 10:20:07;;;;;;;103.07;47.78;;;;;;;;;;5031850;28;20105;-72
2021/01/01 10:22:35;;;;;;;117.47;52.85;;;;;;;;;;5050881;28;20126;-73
2021/01/01 10:25:04;;;;;;;139.88;64.22;;;;;;;;;;5057414;28;20120;-72
2021/01/01 10:27:31;;;;;;;110.60;51.83;;;;;;;;;;5018448;28;20057;-72
2021/01/01 10:29:59;;;;;;;117.88;56.92;;;;;;;;;;5033932;28;20389;-72
2021/01/01 10:32:27;;;;;;;114.95;55.78;;;;;;;;;;5054590;28;20049;-73
2021/01/01 10:34:54;;;;;;;99.80;45.53;;;;;;;;;;5051973;28;20095;-73
2021/01/01 10:37:22;;;;;;;112.30;51.03;;;;;;;;;;5051599;28;20053;-71
2021/01/01 10:39:50;;;;;;;108.45;47.78;;;;;;;;;;5050741;28;20056;-73
2021/01/01 10:42:17;;;;;;;72.25;33.97;;;;;;;;;;5015366;28;20061;-73
2021/01/01 10:44:45;;;;;;;104.78;44.17;;;;;;;;;;5029374;28;20585;-73
2021/01/01 10:47:13;;;;;;;91.68;41.67;;;;;;;;;;5046296;28;20056;-73
2021/01/01 10:49:45;;;;;;;101.20;42.97;;;;;;;;;;5047486;28;20052;-73
2021/01/01 10:52:12;;;;;;;106.93;48.90;;;;;;;;;;5013194;28;20111;-73
2021/01/01 10:54:43;;;;;;;103.88;48.17;;;;;;;;;;5029160;28;20405;-73
2021/01/01 10:57:11;;;;;;;98.50;45.60;;;;;;;;;;5029288;28;20061;-73
2021/01/01 10:59:40;;;;;;;111.28;52.05;;;;;;;;;;5030453;28;20439;-73
2021/01/01 11:02:08;;;;;;;117.20;60.88;;;;;;;;;;5048441;28;20107;-74
2021/01/01 11:04:36;;;;;;;130.10;68.80;;;;;;;;;;5045371;28;20135;-74
2021/01/01 11:07:04;;;;;;;137.73;69.88;;;;;;;;;;5045412;28;20064;-74
2021/01/01 11:09:31;;;;;;;128.70;71.60;;;;;;;;;;5036233;28;20049;-74
2021/01/01 11:11:59;;;;;;;108.82;54.03;;;;;;;;;;5036659;28;20048;-74
2021/01/01 12:27:03;;;;;;;102.60;45.95;;;;;;;;;;5051420;28;20128;-73
2021/01/01 12:29:31;;;;;;;103.65;56.05;;;;;;;;;;5032372;28;20144;-73
2021/01/01 12:31:58;;;;;;;107.97;57.03;;;;;;;;;;5045256;28;20088;-74
2021/01/01 12:34:34;;;;;;;107.97;52.53;;;;;;;;;;5013856;28;20053;-74
2021/01/01 12:37:02;;;;;;;117.65;58.08;;;;;;;;;;5045440;28;20099;-74
2021/01/01 12:39:29;;;;;;;113.90;63.22;;;;;;;;;;5046387;28;20079;-73
2021/01/01 12:41:57;;;;;;;107.55;53.35;;;;;;;;;;5012263;28;20492;-74
2021/01/01 12:44:25;;;;;;;115.97;60.70;;;;;;;;;;5044814;28;20057;-73
2021/01/01 12:46:54;;;;;;;124.03;66.47;;;;;;;;;;5044775;28;20143;-73
2021/01/01 12:49:21;;;;;;;143.07;68.55;;;;;;;;;;5044422;28;20119;-73
2021/01/01 12:51:49;;;;;;;105.03;53.90;;;;;;;;;;5044620;28;20085;-74
2021/01/01 12:54:17;;;;;;;114.15;50.58;;;;;;;;;;5033110;28;20061;-73
2021/01/01 12:56:44;;;;;;;105.78;53.60;;;;;;;;;;5057806;28;20049;-73
2021/01/01 12:59:12;;;;;;;123.93;58.72;;;;;;;;;;5061951;28;20068;-73
2021/01/01 13:01:39;;;;;;;124.82;59.15;;;;;;;;;;5030064;28;20052;-74
2021/01/01 13:04:07;;;;;;;129.35;60.55;;;;;;;;;;5045988;28;20051;-74
2021/01/01 13:06:35;;;;;;;133.57;63.92;;;;;;;;;;5050816;28;20044;-74
2021/01/01 13:09:03;;;;;;;129.38;62.80;;;;;;;;;;5036425;28;20049;-74
2021/01/01 13:11:47;;;;;;;117.38;57.35;;;;;;;;;;5054998;28;20040;-74
2021/01/01 13:14:15;;;;;;;162.35;66.90;;;;;;;;;;5052588;28;20452;-74
2021/01/01 13:16:43;;;;;;;130.15;61.40;;;;;;;;;;5030304;28;20059;-74
2021/01/01 13:19:12;;;;;;;149.27;69.22;;;;;;;;;;5030335;28;20061;-75
2021/01/01 13:21:42;;;;;;;135.88;60.72;;;;;;;;;;5046170;28;20056;-75
2021/01/01 13:24:09;;;;;;;132.30;60.10;;;;;;;;;;5032243;28;20041;-74
2021/01/01 13:26:37;;;;;;;137.45;67.10;;;;;;;;;;5046952;28;20056;-74
2021/01/01 13:29:05;;;;;;;129.35;63.10;;;;;;;;;;5029284;28;20761;-74
2021/01/01 13:31:40;;;;;;;140.65;64.15;;;;;;;;;;5029667;28;20057;-74
2021/01/01 13:34:10;;;;;;;138.65;63.28;;;;;;;;;;5029658;28;20053;-74
2021/01/01 13:36:39;;;;;;;136.43;60.95;;;;;;;;;;5033663;28;20037;-74
2021/01/01 13:39:07;;;;;;;132.27;59.92;;;;;;;;;;5045921;28;20152;-74
2021/01/01 13:41:38;;;;;;;146.45;65.38;;;;;;;;;;5035846;28;20051;-74
2021/01/01 13:44:06;;;;;;;152.50;75.53;;;;;;;;;;5029042;28;20064;-74
2021/01/01 13:46:34;;;;;;;130.77;63.92;;;;;;;;;;5012658;28;20053;-74
2021/01/01 13:49:04;;;;;;;135.63;63.25;;;;;;;;;;5049690;28;20060;-73
2021/01/01 13:51:34;;;;;;;138.85;59.20;;;;;;;;;;5033002;28;20170;-74
2021/01/01 13:54:03;;;;;;;147.20;70.53;;;;;;;;;;5032970;28;20116;-73
2021/01/01 13:56:31;;;;;;;157.10;77.20;;;;;;;;;;5049682;28;20130;-74
2021/01/01 13:58:58;;;;;;;155.73;75.78;;;;;;;;;;5019956;28;20045;-74
2021/01/01 14:01:27;;;;;;;153.63;74.82;;;;;;;;;;5049860;28;20049;-74
2021/01/01 14:03:55;;;;;;;167.70;82.95;;;;;;;;;;5016782;28;20060;-74
2021/01/01 14:06:32;;;;;;;172.65;83.68;;;;;;;;;;5049406;28;20574;-75
2021/01/01 14:09:01;;;;;;;149.68;67.13;;;;;;;;;;5001316;28;20784;-75
2021/01/01 14:11:29;;;;;;;145.05;70.65;;;;;;;;;;5034221;28;20111;-75
2021/01/01 14:13:57;;;;;;;160.38;70.00;;;;;;;;;;5034083;28;20065;-75
2021/01/01 14:16:25;;;;;;;146.48;67.88;;;;;;;;;;5033270;28;20072;-74
2021/01/01 14:18:53;;;;;;;160.30;73.65;;;;;;;;;;5017796;28;20068;-74
2021/01/01 14:21:29;;;;;;;157.85;75.95;;;;;;;;;;5033549;28;20061;-74
2021/01/01 14:23:57;;;;;;;154.73;75.35;;;;;;;;;;5033695;28;20080;-74
2021/01/01 14:26:26;;;;;;;174.35;86.70;;;;;;;;;;5053487;28;20052;-73
2021/01/01 14:28:53;;;;;;;204.80;101.78;;;;;;;;;;5016156;28;20061;-73
2021/01/01 14:31:21;;;;;;;230.88;107.93;;;;;;;;;;5049666;28;20061;-73
2021/01/01 14:33:49;;;;;;;202.52;91.10;;;;;;;;;;5049516;28;20043;-74
2021/01/01 14:36:17;;;;;;;194.98;88.50;;;;;;;;;;5051088;28;20118;-73
2021/01/01 14:38:45;;;;;;;155.48;77.55;;;;;;;;;;5052343;28;20056;-73
2021/01/01 14:41:15;;;;;;;161.90;76.53;;;;;;;;;;5051927;28;20064;-73
2021/01/01 14:43:43;;;;;;;152.82;74.40;;;;;;;;;;5027341;28;20369;-73
2021/01/01 14:46:11;;;;;;;156.02;73.70;;;;;;;;;;5053252;28;20056;-73
2021/01/01 14:48:39;;;;;;;165.57;78.88;;;;;;;;;;5019990;28;20134;-74
2021/01/01 14:51:06;;;;;;;159.02;75.97;;;;;;;;;;5056425;28;20042;-74
2021/01/01 14:53:34;;;;;;;137.25;65.15;;;;;;;;;;5036690;28;20084;-74
2021/01/01 14:56:02;;;;;;;132.00;63.45;;;;;;;;;;5053640;28;20399;-73
2021/01/01 14:58:29;;;;;;;137.73;68.47;;;;;;;;;;5052788;28;20545;-74
2021/01/01 15:00:57;;;;;;;153.35;76.43;;;;;;;;;;5036090;28;20057;-74
2021/01/01 15:03:25;;;;;;;137.13;70.68;;;;;;;;;;5060160;28;20049;-74
2021/01/01 15:05:52;;;;;;;149.80;71.70;;;;;;;;;;5059647;28;20045;-73
2021/01/01 15:08:20;;;;;;;139.10;66.15;;;;;;;;;;5036908;28;20100;-74
2021/01/01 15:10:48;;;;;;;132.20;61.33;;;;;;;;;;5052864;28;20096;-74
2021/01/01 15:13:15;;;;;;;123.07;62.83;;;;;;;;;;5053580;28;20044;-73
2021/01/01 15:15:43;;;;;;;126.45;60.78;;;;;;;;;;5034655;28;20111;-73
2021/01/01 15:18:10;;;;;;;115.55;54.80;;;;;;;;;;5049699;28;20049;-74
2021/01/01 15:20:38;;;;;;;125.65;61.35;;;;;;;;;;5050942;28;20094;-74
2021/01/01 15:23:06;;;;;;;115.43;56.47;;;;;;;;;;5032377;28;20049;-74
2021/01/01 15:25:35;;;;;;;135.57;65.22;;;;;;;;;;5050448;28;20049;-73
2021/01/01 15:28:03;;;;;;;129.85;59.97;;;;;;;;;;5056952;28;20044;-73
2021/01/01 15:30:31;;;;;;;133.75;63.13;;;;;;;;;;5018246;28;20048;-73
2021/01/01 15:32:58;;;;;;;137.35;64.50;;;;;;;;;;5034514;28;20118;-73
2021/01/01 15:35:26;;;;;;;140.90;67.30;;;;;;;;;;5050944;28;20057;-74
2021/01/01 15:37:54;;;;;;;134.88;69.70;;;;;;;;;;5034549;28;20084;-73
2021/01/01 15:40:21;;;;;;;122.28;62.33;;;;;;;;;;5050590;28;20060;-73